Accueil
METAR-TAF:

METAR-TAF

Aéroports :

Funchal, Madère, Portugal

Aéroport Cristiano-Ronaldo

latitude: 32-41-52N, longitude: 016-46-28W, altitude: 59 m

Observation

Le bulletin a été fait il y a 21 minutes, à 01:30 UTC
Vent 20 kt de nord
Température 25°C
Humidité 47%
Pression 1019 hPa
Visibilité 10 km ou plus
Quelques nuages à une hauteur de 1500 ft

METAR: LPMA 190130Z 36020KT 9999 FEW015 25/13 Q1019

Heure: 02:51 (01:51 UTC)

Prévision

Le bulletin a été fait il y a 2 heures et 51 minutes, à 23:00 UTC
Prévision valable du 19 à 00 UTC au 19 à 24 UTC
Vent 17 kt de nord
Visibilité 10 km ou plus
Quelques nuages à une hauteur de 1500 ft
Temporairement
du 19 à 00 UTC au 19 à 24 UTC
Vent 20 kt de nord avec des rafales jusqu'à 32 kt

TAF: LPMA 182300Z 1900/1924 01017KT 9999 FEW015 TEMPO 1900/1924 01020G32KT

Observations et prévisions météorologiques de plus de 4000 aéroports (messages METAR et TAF).

Les stations disponibles sont représentées par des disques jaunes et rouges sur la carte.

Passer la souris dessus pour voir le nom de la station.

Cliquer dessus pour voir les observations et prévisions météorologiques.

Pour changer de carte: cliquez sur les boutons verts avec une croix noire pour zoomer, sur le bouton vert avec un tiret pour effectuer un zoom arrière, ou sur les flèches vertes pour les cartes adjacentes.


METAR-TAF: